sensor_id;sensor_type;location;lat;lon;timestamp;P1;durP1;ratioP1;P2;durP2;ratioP2
43184;SDS011;28803;52.308;19.096;2023-04-24T00:02:03;15.65;;;8.38;;
43184;SDS011;28803;52.308;19.096;2023-04-24T00:04:33;13.10;;;7.35;;
43184;SDS011;28803;52.308;19.096;2023-04-24T00:07:00;13.85;;;7.05;;
43184;SDS011;28803;52.308;19.096;2023-04-24T00:09:28;14.45;;;8.07;;
43184;SDS011;28803;52.308;19.096;2023-04-24T00:11:55;14.43;;;7.63;;
43184;SDS011;28803;52.308;19.096;2023-04-24T00:14:22;12.52;;;7.45;;
43184;SDS011;28803;52.308;19.096;2023-04-24T00:16:49;12.43;;;7.30;;
43184;SDS011;28803;52.308;19.096;2023-04-24T00:19:17;11.20;;;7.30;;
43184;SDS011;28803;52.308;19.096;2023-04-24T00:21:47;18.42;;;8.32;;
43184;SDS011;28803;52.308;19.096;2023-04-24T00:24:18;19.17;;;8.10;;
43184;SDS011;28803;52.308;19.096;2023-04-24T00:26:45;15.30;;;8.95;;
43184;SDS011;28803;52.308;19.096;2023-04-24T00:29:13;13.35;;;8.10;;
43184;SDS011;28803;52.308;19.096;2023-04-24T00:31:40;13.32;;;8.48;;
43184;SDS011;28803;52.308;19.096;2023-04-24T00:34:07;15.55;;;8.18;;
43184;SDS011;28803;52.308;19.096;2023-04-24T00:36:34;14.23;;;7.97;;
43184;SDS011;28803;52.308;19.096;2023-04-24T00:39:02;14.65;;;8.25;;
43184;SDS011;28803;52.308;19.096;2023-04-24T00:41:29;12.48;;;8.10;;
43184;SDS011;28803;52.308;19.096;2023-04-24T00:43:57;11.50;;;7.60;;
43184;SDS011;28803;52.308;19.096;2023-04-24T00:46:24;14.55;;;7.55;;
43184;SDS011;28803;52.308;19.096;2023-04-24T00:48:51;14.88;;;7.78;;
43184;SDS011;28803;52.308;19.096;2023-04-24T00:51:18;14.48;;;8.40;;
43184;SDS011;28803;52.308;19.096;2023-04-24T00:53:46;14.68;;;8.38;;
43184;SDS011;28803;52.308;19.096;2023-04-24T00:56:13;12.93;;;7.53;;
43184;SDS011;28803;52.308;19.096;2023-04-24T00:58:41;13.43;;;8.85;;
43184;SDS011;28803;52.308;19.096;2023-04-24T01:01:09;13.15;;;7.15;;
43184;SDS011;28803;52.308;19.096;2023-04-24T01:03:38;13.88;;;7.95;;
43184;SDS011;28803;52.308;19.096;2023-04-24T01:06:06;14.18;;;7.32;;
43184;SDS011;28803;52.308;19.096;2023-04-24T01:08:34;13.15;;;7.47;;
43184;SDS011;28803;52.308;19.096;2023-04-24T01:11:03;11.90;;;7.18;;
43184;SDS011;28803;52.308;19.096;2023-04-24T01:13:31;15.35;;;7.35;;
43184;SDS011;28803;52.308;19.096;2023-04-24T01:15:59;13.30;;;8.27;;
43184;SDS011;28803;52.308;19.096;2023-04-24T01:18:27;14.10;;;6.50;;
43184;SDS011;28803;52.308;19.096;2023-04-24T01:20:58;11.43;;;7.25;;
43184;SDS011;28803;52.308;19.096;2023-04-24T01:23:30;14.27;;;7.45;;
43184;SDS011;28803;52.308;19.096;2023-04-24T01:25:57;12.10;;;7.13;;
43184;SDS011;28803;52.308;19.096;2023-04-24T01:28:24;13.13;;;7.78;;
43184;SDS011;28803;52.308;19.096;2023-04-24T01:30:52;14.48;;;7.88;;
43184;SDS011;28803;52.308;19.096;2023-04-24T01:33:20;16.08;;;7.97;;
43184;SDS011;28803;52.308;19.096;2023-04-24T01:35:48;15.50;;;8.90;;
43184;SDS011;28803;52.308;19.096;2023-04-24T01:38:17;12.00;;;7.05;;
43184;SDS011;28803;52.308;19.096;2023-04-24T01:40:43;13.18;;;7.32;;
43184;SDS011;28803;52.308;19.096;2023-04-24T01:43:12;13.27;;;6.95;;
43184;SDS011;28803;52.308;19.096;2023-04-24T01:45:39;11.18;;;7.18;;
43184;SDS011;28803;52.308;19.096;2023-04-24T01:48:06;14.32;;;7.47;;
43184;SDS011;28803;52.308;19.096;2023-04-24T01:50:34;16.33;;;9.05;;
43184;SDS011;28803;52.308;19.096;2023-04-24T01:53:01;17.08;;;8.05;;
43184;SDS011;28803;52.308;19.096;2023-04-24T01:55:28;15.00;;;7.55;;
43184;SDS011;28803;52.308;19.096;2023-04-24T01:57:56;17.70;;;7.60;;
43184;SDS011;28803;52.308;19.096;2023-04-24T02:00:23;11.48;;;7.80;;
43184;SDS011;28803;52.308;19.096;2023-04-24T02:02:51;14.43;;;7.68;;
43184;SDS011;28803;52.308;19.096;2023-04-24T02:05:19;11.15;;;7.10;;
43184;SDS011;28803;52.308;19.096;2023-04-24T02:07:46;14.77;;;7.95;;
43184;SDS011;28803;52.308;19.096;2023-04-24T02:10:13;14.35;;;7.78;;
43184;SDS011;28803;52.308;19.096;2023-04-24T02:12:41;16.83;;;6.93;;
43184;SDS011;28803;52.308;19.096;2023-04-24T02:15:08;13.50;;;8.00;;
43184;SDS011;28803;52.308;19.096;2023-04-24T02:17:35;13.60;;;7.28;;
43184;SDS011;28803;52.308;19.096;2023-04-24T02:20:03;14.68;;;7.55;;
43184;SDS011;28803;52.308;19.096;2023-04-24T02:22:31;11.93;;;7.32;;
43184;SDS011;28803;52.308;19.096;2023-04-24T02:24:58;13.13;;;7.78;;
43184;SDS011;28803;52.308;19.096;2023-04-24T02:27:26;13.65;;;7.22;;
43184;SDS011;28803;52.308;19.096;2023-04-24T02:29:53;12.18;;;6.78;;
43184;SDS011;28803;52.308;19.096;2023-04-24T02:32:20;15.20;;;7.50;;
43184;SDS011;28803;52.308;19.096;2023-04-24T02:34:47;13.95;;;7.60;;
43184;SDS011;28803;52.308;19.096;2023-04-24T02:37:15;14.02;;;8.05;;
43184;SDS011;28803;52.308;19.096;2023-04-24T02:39:42;11.73;;;7.05;;
43184;SDS011;28803;52.308;19.096;2023-04-24T02:42:10;11.18;;;7.15;;
43184;SDS011;28803;52.308;19.096;2023-04-24T02:44:37;10.68;;;7.30;;
43184;SDS011;28803;52.308;19.096;2023-04-24T02:47:04;15.90;;;8.13;;
43184;SDS011;28803;52.308;19.096;2023-04-24T02:49:31;15.48;;;8.13;;
43184;SDS011;28803;52.308;19.096;2023-04-24T02:51:59;9.48;;;6.50;;
43184;SDS011;28803;52.308;19.096;2023-04-24T02:54:26;11.55;;;6.65;;
43184;SDS011;28803;52.308;19.096;2023-04-24T02:56:53;13.18;;;7.18;;
43184;SDS011;28803;52.308;19.096;2023-04-24T02:59:20;15.52;;;7.63;;
43184;SDS011;28803;52.308;19.096;2023-04-24T03:01:47;11.70;;;7.45;;
43184;SDS011;28803;52.308;19.096;2023-04-24T03:04:14;12.25;;;7.22;;
43184;SDS011;28803;52.308;19.096;2023-04-24T03:06:43;12.70;;;7.65;;
43184;SDS011;28803;52.308;19.096;2023-04-24T03:09:10;12.27;;;7.80;;
43184;SDS011;28803;52.308;19.096;2023-04-24T03:11:37;13.88;;;8.27;;
43184;SDS011;28803;52.308;19.096;2023-04-24T03:14:04;12.57;;;7.28;;
43184;SDS011;28803;52.308;19.096;2023-04-24T03:16:32;15.95;;;8.40;;
43184;SDS011;28803;52.308;19.096;2023-04-24T03:18:59;13.73;;;7.68;;
43184;SDS011;28803;52.308;19.096;2023-04-24T03:21:27;13.13;;;7.75;;
43184;SDS011;28803;52.308;19.096;2023-04-24T03:23:54;12.52;;;7.78;;
43184;SDS011;28803;52.308;19.096;2023-04-24T03:26:22;15.45;;;8.25;;
43184;SDS011;28803;52.308;19.096;2023-04-24T03:28:49;14.48;;;8.23;;
43184;SDS011;28803;52.308;19.096;2023-04-24T03:31:16;13.25;;;8.50;;
43184;SDS011;28803;52.308;19.096;2023-04-24T03:33:43;12.57;;;7.93;;
43184;SDS011;28803;52.308;19.096;2023-04-24T03:36:11;14.13;;;7.97;;
43184;SDS011;28803;52.308;19.096;2023-04-24T03:38:38;15.38;;;8.68;;
43184;SDS011;28803;52.308;19.096;2023-04-24T03:41:05;15.57;;;8.07;;
43184;SDS011;28803;52.308;19.096;2023-04-24T03:43:32;17.35;;;8.63;;
43184;SDS011;28803;52.308;19.096;2023-04-24T03:46:01;15.85;;;9.55;;
43184;SDS011;28803;52.308;19.096;2023-04-24T03:48:28;16.80;;;8.60;;
43184;SDS011;28803;52.308;19.096;2023-04-24T03:50:56;15.27;;;8.00;;
43184;SDS011;28803;52.308;19.096;2023-04-24T03:53:23;18.77;;;9.38;;
43184;SDS011;28803;52.308;19.096;2023-04-24T03:55:50;13.25;;;8.45;;
43184;SDS011;28803;52.308;19.096;2023-04-24T03:58:17;15.93;;;9.13;;
43184;SDS011;28803;52.308;19.096;2023-04-24T04:00:44;17.02;;;9.48;;
43184;SDS011;28803;52.308;19.096;2023-04-24T04:03:14;15.38;;;9.52;;
43184;SDS011;28803;52.308;19.096;2023-04-24T04:05:42;15.07;;;9.13;;
43184;SDS011;28803;52.308;19.096;2023-04-24T04:08:09;14.15;;;8.50;;
43184;SDS011;28803;52.308;19.096;2023-04-24T04:10:36;16.40;;;7.20;;
43184;SDS011;28803;52.308;19.096;2023-04-24T04:13:03;18.35;;;8.73;;
43184;SDS011;28803;52.308;19.096;2023-04-24T04:15:31;14.73;;;7.60;;
43184;SDS011;28803;52.308;19.096;2023-04-24T04:17:58;11.75;;;7.85;;
43184;SDS011;28803;52.308;19.096;2023-04-24T04:20:25;13.45;;;8.70;;
43184;SDS011;28803;52.308;19.096;2023-04-24T04:22:52;16.95;;;8.25;;
43184;SDS011;28803;52.308;19.096;2023-04-24T04:25:19;14.30;;;7.82;;
43184;SDS011;28803;52.308;19.096;2023-04-24T04:27:46;14.73;;;8.75;;
43184;SDS011;28803;52.308;19.096;2023-04-24T04:30:17;15.88;;;8.02;;
43184;SDS011;28803;52.308;19.096;2023-04-24T04:32:44;11.45;;;7.53;;
43184;SDS011;28803;52.308;19.096;2023-04-24T04:35:12;14.98;;;8.20;;
43184;SDS011;28803;52.308;19.096;2023-04-24T04:37:39;13.02;;;7.68;;
43184;SDS011;28803;52.308;19.096;2023-04-24T04:40:06;10.82;;;7.30;;
43184;SDS011;28803;52.308;19.096;2023-04-24T04:42:38;12.80;;;8.00;;
43184;SDS011;28803;52.308;19.096;2023-04-24T04:45:07;11.82;;;7.72;;
43184;SDS011;28803;52.308;19.096;2023-04-24T04:47:38;12.68;;;7.05;;
43184;SDS011;28803;52.308;19.096;2023-04-24T04:50:06;12.75;;;7.10;;
43184;SDS011;28803;52.308;19.096;2023-04-24T04:52:33;11.40;;;6.95;;
43184;SDS011;28803;52.308;19.096;2023-04-24T04:55:02;12.70;;;7.22;;
43184;SDS011;28803;52.308;19.096;2023-04-24T04:57:29;9.93;;;6.20;;
43184;SDS011;28803;52.308;19.096;2023-04-24T04:59:57;10.75;;;7.05;;
43184;SDS011;28803;52.308;19.096;2023-04-24T05:02:24;10.27;;;6.05;;
43184;SDS011;28803;52.308;19.096;2023-04-24T05:04:52;10.93;;;6.05;;
43184;SDS011;28803;52.308;19.096;2023-04-24T05:07:19;15.70;;;7.88;;
43184;SDS011;28803;52.308;19.096;2023-04-24T05:09:46;12.18;;;6.38;;
43184;SDS011;28803;52.308;19.096;2023-04-24T05:12:13;11.07;;;5.80;;
43184;SDS011;28803;52.308;19.096;2023-04-24T05:14:41;7.85;;;5.40;;
43184;SDS011;28803;52.308;19.096;2023-04-24T05:17:08;8.27;;;5.97;;
43184;SDS011;28803;52.308;19.096;2023-04-24T05:19:36;13.13;;;6.25;;
43184;SDS011;28803;52.308;19.096;2023-04-24T05:22:04;7.47;;;5.30;;
43184;SDS011;28803;52.308;19.096;2023-04-24T05:24:33;7.78;;;5.38;;
43184;SDS011;28803;52.308;19.096;2023-04-24T05:27:01;9.43;;;5.80;;
43184;SDS011;28803;52.308;19.096;2023-04-24T05:29:29;8.40;;;5.22;;
43184;SDS011;28803;52.308;19.096;2023-04-24T05:31:59;10.18;;;5.25;;
43184;SDS011;28803;52.308;19.096;2023-04-24T05:34:27;10.40;;;5.70;;
43184;SDS011;28803;52.308;19.096;2023-04-24T05:36:54;13.75;;;5.85;;
43184;SDS011;28803;52.308;19.096;2023-04-24T05:39:22;8.57;;;5.30;;
43184;SDS011;28803;52.308;19.096;2023-04-24T05:41:51;7.97;;;5.28;;
43184;SDS011;28803;52.308;19.096;2023-04-24T05:44:18;10.85;;;6.03;;
43184;SDS011;28803;52.308;19.096;2023-04-24T05:46:46;8.43;;;5.40;;
43184;SDS011;28803;52.308;19.096;2023-04-24T05:49:15;13.38;;;6.03;;
43184;SDS011;28803;52.308;19.096;2023-04-24T05:51:42;9.80;;;5.80;;
43184;SDS011;28803;52.308;19.096;2023-04-24T05:54:09;7.80;;;5.35;;
43184;SDS011;28803;52.308;19.096;2023-04-24T05:56:38;9.07;;;5.28;;
43184;SDS011;28803;52.308;19.096;2023-04-24T05:59:09;8.82;;;4.95;;
43184;SDS011;28803;52.308;19.096;2023-04-24T06:01:36;10.35;;;6.45;;
43184;SDS011;28803;52.308;19.096;2023-04-24T06:04:03;10.05;;;5.88;;
43184;SDS011;28803;52.308;19.096;2023-04-24T06:06:31;8.40;;;5.30;;
43184;SDS011;28803;52.308;19.096;2023-04-24T06:08:59;8.43;;;5.68;;
43184;SDS011;28803;52.308;19.096;2023-04-24T06:11:26;8.55;;;5.47;;
43184;SDS011;28803;52.308;19.096;2023-04-24T06:13:54;8.93;;;5.57;;
43184;SDS011;28803;52.308;19.096;2023-04-24T06:16:21;8.35;;;4.90;;
43184;SDS011;28803;52.308;19.096;2023-04-24T06:18:48;9.75;;;5.57;;
43184;SDS011;28803;52.308;19.096;2023-04-24T06:21:16;9.48;;;5.00;;
43184;SDS011;28803;52.308;19.096;2023-04-24T06:23:44;9.45;;;6.05;;
43184;SDS011;28803;52.308;19.096;2023-04-24T06:26:12;7.75;;;4.88;;
43184;SDS011;28803;52.308;19.096;2023-04-24T06:28:40;9.25;;;4.68;;
43184;SDS011;28803;52.308;19.096;2023-04-24T06:31:07;8.30;;;4.55;;
43184;SDS011;28803;52.308;19.096;2023-04-24T06:33:34;6.95;;;4.25;;
43184;SDS011;28803;52.308;19.096;2023-04-24T06:36:01;8.43;;;4.82;;
43184;SDS011;28803;52.308;19.096;2023-04-24T06:38:30;9.07;;;4.80;;
43184;SDS011;28803;52.308;19.096;2023-04-24T06:40:57;10.30;;;4.28;;
43184;SDS011;28803;52.308;19.096;2023-04-24T06:43:25;7.82;;;4.28;;
43184;SDS011;28803;52.308;19.096;2023-04-24T06:45:52;7.15;;;4.40;;
43184;SDS011;28803;52.308;19.096;2023-04-24T06:48:19;9.57;;;4.75;;
43184;SDS011;28803;52.308;19.096;2023-04-24T06:50:46;7.22;;;4.30;;
43184;SDS011;28803;52.308;19.096;2023-04-24T06:53:14;7.47;;;4.65;;
43184;SDS011;28803;52.308;19.096;2023-04-24T06:55:41;6.95;;;3.58;;
43184;SDS011;28803;52.308;19.096;2023-04-24T06:58:10;4.75;;;3.95;;
43184;SDS011;28803;52.308;19.096;2023-04-24T07:00:37;6.20;;;4.18;;
43184;SDS011;28803;52.308;19.096;2023-04-24T07:03:05;9.38;;;3.75;;
43184;SDS011;28803;52.308;19.096;2023-04-24T07:05:32;7.78;;;3.95;;
43184;SDS011;28803;52.308;19.096;2023-04-24T07:08:04;8.25;;;3.70;;
43184;SDS011;28803;52.308;19.096;2023-04-24T07:10:31;5.07;;;3.67;;
43184;SDS011;28803;52.308;19.096;2023-04-24T07:12:58;6.43;;;3.83;;
43184;SDS011;28803;52.308;19.096;2023-04-24T07:15:26;5.03;;;3.22;;
43184;SDS011;28803;52.308;19.096;2023-04-24T07:17:53;5.85;;;3.70;;
43184;SDS011;28803;52.308;19.096;2023-04-24T07:20:20;6.47;;;3.70;;
43184;SDS011;28803;52.308;19.096;2023-04-24T07:22:48;6.03;;;3.70;;
43184;SDS011;28803;52.308;19.096;2023-04-24T07:25:15;7.90;;;3.63;;
43184;SDS011;28803;52.308;19.096;2023-04-24T07:27:43;8.25;;;4.10;;
43184;SDS011;28803;52.308;19.096;2023-04-24T07:30:10;4.57;;;2.92;;
43184;SDS011;28803;52.308;19.096;2023-04-24T07:32:38;10.20;;;3.95;;
43184;SDS011;28803;52.308;19.096;2023-04-24T07:35:05;6.18;;;3.53;;
43184;SDS011;28803;52.308;19.096;2023-04-24T07:37:33;7.45;;;3.33;;
43184;SDS011;28803;52.308;19.096;2023-04-24T07:40:00;5.32;;;3.42;;
43184;SDS011;28803;52.308;19.096;2023-04-24T07:42:28;7.25;;;3.60;;
43184;SDS011;28803;52.308;19.096;2023-04-24T07:44:56;4.30;;;3.00;;
43184;SDS011;28803;52.308;19.096;2023-04-24T07:47:24;5.22;;;2.80;;
43184;SDS011;28803;52.308;19.096;2023-04-24T07:49:51;5.10;;;3.03;;
43184;SDS011;28803;52.308;19.096;2023-04-24T07:52:19;7.82;;;3.58;;
43184;SDS011;28803;52.308;19.096;2023-04-24T07:54:46;4.40;;;2.72;;
43184;SDS011;28803;52.308;19.096;2023-04-24T07:57:13;5.85;;;2.65;;
43184;SDS011;28803;52.308;19.096;2023-04-24T07:59:41;7.28;;;3.67;;
43184;SDS011;28803;52.308;19.096;2023-04-24T08:02:08;6.50;;;3.72;;
43184;SDS011;28803;52.308;19.096;2023-04-24T08:04:36;6.30;;;2.90;;
43184;SDS011;28803;52.308;19.096;2023-04-24T08:07:03;7.03;;;2.60;;
43184;SDS011;28803;52.308;19.096;2023-04-24T08:09:30;3.88;;;2.97;;
43184;SDS011;28803;52.308;19.096;2023-04-24T08:11:58;6.55;;;2.90;;
43184;SDS011;28803;52.308;19.096;2023-04-24T08:14:25;7.45;;;2.92;;
43184;SDS011;28803;52.308;19.096;2023-04-24T08:16:53;5.20;;;3.03;;
43184;SDS011;28803;52.308;19.096;2023-04-24T08:19:22;5.00;;;2.97;;
43184;SDS011;28803;52.308;19.096;2023-04-24T08:21:49;5.75;;;2.97;;
43184;SDS011;28803;52.308;19.096;2023-04-24T08:24:16;5.85;;;3.15;;
43184;SDS011;28803;52.308;19.096;2023-04-24T08:26:44;4.35;;;2.55;;
43184;SDS011;28803;52.308;19.096;2023-04-24T08:29:11;4.55;;;2.17;;
43184;SDS011;28803;52.308;19.096;2023-04-24T08:31:39;4.10;;;2.88;;
43184;SDS011;28803;52.308;19.096;2023-04-24T08:34:06;45.13;;;5.65;;
43184;SDS011;28803;52.308;19.096;2023-04-24T08:36:33;17.42;;;3.55;;
43184;SDS011;28803;52.308;19.096;2023-04-24T08:39:12;3.70;;;2.47;;
43184;SDS011;28803;52.308;19.096;2023-04-24T08:41:41;7.50;;;1.95;;
43184;SDS011;28803;52.308;19.096;2023-04-24T08:44:12;3.42;;;2.38;;
43184;SDS011;28803;52.308;19.096;2023-04-24T08:46:42;5.90;;;2.65;;
43184;SDS011;28803;52.308;19.096;2023-04-24T08:49:12;5.90;;;2.45;;
43184;SDS011;28803;52.308;19.096;2023-04-24T08:51:43;4.65;;;2.90;;
43184;SDS011;28803;52.308;19.096;2023-04-24T08:54:11;4.93;;;2.45;;
43184;SDS011;28803;52.308;19.096;2023-04-24T08:56:40;3.13;;;2.17;;
43184;SDS011;28803;52.308;19.096;2023-04-24T08:59:11;3.55;;;2.47;;
43184;SDS011;28803;52.308;19.096;2023-04-24T09:01:39;7.32;;;2.17;;
43184;SDS011;28803;52.308;19.096;2023-04-24T09:04:08;3.80;;;2.38;;
43184;SDS011;28803;52.308;19.096;2023-04-24T09:06:38;4.85;;;2.40;;
43184;SDS011;28803;52.308;19.096;2023-04-24T09:09:05;7.03;;;2.00;;
43184;SDS011;28803;52.308;19.096;2023-04-24T09:11:34;5.63;;;2.80;;
43184;SDS011;28803;52.308;19.096;2023-04-24T09:14:03;5.82;;;2.70;;
43184;SDS011;28803;52.308;19.096;2023-04-24T09:16:31;5.50;;;2.33;;
43184;SDS011;28803;52.308;19.096;2023-04-24T09:19:02;5.78;;;2.80;;
43184;SDS011;28803;52.308;19.096;2023-04-24T09:21:33;5.15;;;2.53;;
43184;SDS011;28803;52.308;19.096;2023-04-24T09:24:02;4.97;;;2.95;;
43184;SDS011;28803;52.308;19.096;2023-04-24T09:26:35;3.92;;;2.40;;
43184;SDS011;28803;52.308;19.096;2023-04-24T09:29:03;4.63;;;2.92;;
43184;SDS011;28803;52.308;19.096;2023-04-24T09:31:31;5.15;;;2.70;;
43184;SDS011;28803;52.308;19.096;2023-04-24T09:33:59;3.67;;;2.60;;
43184;SDS011;28803;52.308;19.096;2023-04-24T09:36:41;4.15;;;2.20;;
43184;SDS011;28803;52.308;19.096;2023-04-24T09:39:10;3.15;;;2.30;;
43184;SDS011;28803;52.308;19.096;2023-04-24T09:41:49;6.63;;;2.00;;
43184;SDS011;28803;52.308;19.096;2023-04-24T09:44:18;5.70;;;2.10;;
43184;SDS011;28803;52.308;19.096;2023-04-24T09:46:50;4.28;;;2.00;;
43184;SDS011;28803;52.308;19.096;2023-04-24T09:49:30;2.05;;;1.50;;
43184;SDS011;28803;52.308;19.096;2023-04-24T09:52:06;2.45;;;1.30;;
43184;SDS011;28803;52.308;19.096;2023-04-24T09:54:35;2.90;;;2.10;;
43184;SDS011;28803;52.308;19.096;2023-04-24T09:57:08;2.58;;;1.58;;
43184;SDS011;28803;52.308;19.096;2023-04-24T09:59:38;2.20;;;1.52;;
43184;SDS011;28803;52.308;19.096;2023-04-24T10:02:20;3.45;;;1.90;;
43184;SDS011;28803;52.308;19.096;2023-04-24T10:04:54;3.45;;;1.95;;
43184;SDS011;28803;52.308;19.096;2023-04-24T10:07:27;4.00;;;2.17;;
43184;SDS011;28803;52.308;19.096;2023-04-24T10:09:54;4.57;;;2.00;;
43184;SDS011;28803;52.308;19.096;2023-04-24T10:12:22;3.15;;;1.55;;
43184;SDS011;28803;52.308;19.096;2023-04-24T10:14:51;6.45;;;2.10;;
43184;SDS011;28803;52.308;19.096;2023-04-24T10:17:19;4.55;;;2.05;;
43184;SDS011;28803;52.308;19.096;2023-04-24T10:19:48;6.65;;;2.85;;
43184;SDS011;28803;52.308;19.096;2023-04-24T10:22:16;5.40;;;2.10;;
43184;SDS011;28803;52.308;19.096;2023-04-24T10:24:44;3.15;;;1.90;;
43184;SDS011;28803;52.308;19.096;2023-04-24T10:27:14;8.23;;;2.90;;
43184;SDS011;28803;52.308;19.096;2023-04-24T10:29:42;6.13;;;2.60;;
43184;SDS011;28803;52.308;19.096;2023-04-24T10:32:11;8.15;;;2.03;;
43184;SDS011;28803;52.308;19.096;2023-04-24T10:34:38;4.30;;;2.53;;
43184;SDS011;28803;52.308;19.096;2023-04-24T10:37:06;6.72;;;2.13;;
43184;SDS011;28803;52.308;19.096;2023-04-24T10:39:34;7.65;;;2.00;;
43184;SDS011;28803;52.308;19.096;2023-04-24T10:42:02;5.20;;;2.22;;
43184;SDS011;28803;52.308;19.096;2023-04-24T10:44:40;3.30;;;2.00;;
43184;SDS011;28803;52.308;19.096;2023-04-24T10:47:12;5.65;;;2.08;;
43184;SDS011;28803;52.308;19.096;2023-04-24T10:49:40;4.10;;;2.13;;
43184;SDS011;28803;52.308;19.096;2023-04-24T10:52:09;3.88;;;2.13;;
43184;SDS011;28803;52.308;19.096;2023-04-24T10:54:44;7.35;;;2.88;;
43184;SDS011;28803;52.308;19.096;2023-04-24T10:59:52;5.97;;;2.17;;
43184;SDS011;28803;52.308;19.096;2023-04-24T11:02:41;3.47;;;1.87;;
43184;SDS011;28803;52.308;19.096;2023-04-24T11:05:16;3.42;;;1.85;;
43184;SDS011;28803;52.308;19.096;2023-04-24T11:11:08;3.80;;;2.05;;
43184;SDS011;28803;52.308;19.096;2023-04-24T11:14:21;5.03;;;2.10;;
43184;SDS011;28803;52.308;19.096;2023-04-24T11:19:02;5.57;;;2.17;;
43184;SDS011;28803;52.308;19.096;2023-04-24T11:21:42;4.07;;;2.70;;
43184;SDS011;28803;52.308;19.096;2023-04-24T11:24:23;4.45;;;2.50;;
43184;SDS011;28803;52.308;19.096;2023-04-24T11:27:06;5.15;;;3.28;;
43184;SDS011;28803;52.308;19.096;2023-04-24T11:34:55;8.63;;;2.42;;
43184;SDS011;28803;52.308;19.096;2023-04-24T11:37:29;4.35;;;2.45;;
43184;SDS011;28803;52.308;19.096;2023-04-24T11:40:00;5.43;;;2.60;;
43184;SDS011;28803;52.308;19.096;2023-04-24T11:42:33;4.07;;;2.50;;
43184;SDS011;28803;52.308;19.096;2023-04-24T11:45:08;4.40;;;2.92;;
43184;SDS011;28803;52.308;19.096;2023-04-24T11:47:36;5.22;;;2.50;;
43184;SDS011;28803;52.308;19.096;2023-04-24T11:50:05;3.35;;;2.15;;
43184;SDS011;28803;52.308;19.096;2023-04-24T11:52:38;5.25;;;2.30;;
43184;SDS011;28803;52.308;19.096;2023-04-24T11:55:23;3.85;;;2.75;;
43184;SDS011;28803;52.308;19.096;2023-04-24T11:57:53;3.63;;;2.22;;
43184;SDS011;28803;52.308;19.096;2023-04-24T12:00:24;4.68;;;2.40;;
43184;SDS011;28803;52.308;19.096;2023-04-24T12:03:03;3.28;;;2.28;;
43184;SDS011;28803;52.308;19.096;2023-04-24T12:05:33;3.88;;;2.53;;
43184;SDS011;28803;52.308;19.096;2023-04-24T12:08:01;4.22;;;2.13;;
43184;SDS011;28803;52.308;19.096;2023-04-24T12:10:29;4.03;;;2.40;;
43184;SDS011;28803;52.308;19.096;2023-04-24T12:12:57;3.53;;;2.13;;
43184;SDS011;28803;52.308;19.096;2023-04-24T12:15:26;9.60;;;4.55;;
43184;SDS011;28803;52.308;19.096;2023-04-24T12:17:54;10.95;;;3.30;;
43184;SDS011;28803;52.308;19.096;2023-04-24T12:20:27;4.47;;;2.78;;
43184;SDS011;28803;52.308;19.096;2023-04-24T12:22:57;7.18;;;2.47;;
43184;SDS011;28803;52.308;19.096;2023-04-24T12:25:26;6.30;;;2.28;;
43184;SDS011;28803;52.308;19.096;2023-04-24T12:27:55;5.05;;;2.85;;
43184;SDS011;28803;52.308;19.096;2023-04-24T12:30:43;2.42;;;1.85;;
43184;SDS011;28803;52.308;19.096;2023-04-24T12:33:18;3.92;;;2.50;;
43184;SDS011;28803;52.308;19.096;2023-04-24T12:35:47;4.90;;;2.20;;
43184;SDS011;28803;52.308;19.096;2023-04-24T12:38:21;4.53;;;2.67;;
43184;SDS011;28803;52.308;19.096;2023-04-24T12:41:00;27.30;;;6.43;;
43184;SDS011;28803;52.308;19.096;2023-04-24T12:43:29;3.88;;;2.58;;
43184;SDS011;28803;52.308;19.096;2023-04-24T12:45:56;10.02;;;3.55;;
43184;SDS011;28803;52.308;19.096;2023-04-24T12:48:24;3.80;;;2.97;;
43184;SDS011;28803;52.308;19.096;2023-04-24T12:50:55;3.25;;;2.35;;
43184;SDS011;28803;52.308;19.096;2023-04-24T12:53:27;4.55;;;2.40;;
43184;SDS011;28803;52.308;19.096;2023-04-24T12:55:56;4.15;;;2.78;;
43184;SDS011;28803;52.308;19.096;2023-04-24T12:58:23;3.15;;;1.92;;
43184;SDS011;28803;52.308;19.096;2023-04-24T13:00:51;3.75;;;2.30;;
43184;SDS011;28803;52.308;19.096;2023-04-24T13:03:18;3.90;;;2.53;;
43184;SDS011;28803;52.308;19.096;2023-04-24T13:05:46;3.33;;;2.45;;
43184;SDS011;28803;52.308;19.096;2023-04-24T13:08:13;4.20;;;2.65;;
43184;SDS011;28803;52.308;19.096;2023-04-24T13:10:41;4.55;;;2.50;;
43184;SDS011;28803;52.308;19.096;2023-04-24T13:13:08;7.30;;;2.50;;
43184;SDS011;28803;52.308;19.096;2023-04-24T13:15:36;3.63;;;2.42;;
43184;SDS011;28803;52.308;19.096;2023-04-24T13:18:03;6.10;;;2.83;;
43184;SDS011;28803;52.308;19.096;2023-04-24T13:20:30;5.70;;;2.63;;
43184;SDS011;28803;52.308;19.096;2023-04-24T13:22:59;5.82;;;2.97;;
43184;SDS011;28803;52.308;19.096;2023-04-24T13:25:26;4.55;;;2.70;;
43184;SDS011;28803;52.308;19.096;2023-04-24T13:27:54;5.35;;;2.85;;
43184;SDS011;28803;52.308;19.096;2023-04-24T13:30:22;4.63;;;3.00;;
43184;SDS011;28803;52.308;19.096;2023-04-24T13:32:49;6.25;;;2.92;;
43184;SDS011;28803;52.308;19.096;2023-04-24T13:35:16;7.07;;;3.35;;
43184;SDS011;28803;52.308;19.096;2023-04-24T13:37:43;4.55;;;2.47;;
43184;SDS011;28803;52.308;19.096;2023-04-24T13:40:11;5.60;;;2.85;;
43184;SDS011;28803;52.308;19.096;2023-04-24T13:42:38;5.53;;;3.33;;
43184;SDS011;28803;52.308;19.096;2023-04-24T13:45:05;5.78;;;2.95;;
43184;SDS011;28803;52.308;19.096;2023-04-24T13:47:49;7.15;;;2.97;;
43184;SDS011;28803;52.308;19.096;2023-04-24T13:50:18;4.63;;;2.80;;
43184;SDS011;28803;52.308;19.096;2023-04-24T13:52:46;6.03;;;2.70;;
43184;SDS011;28803;52.308;19.096;2023-04-24T13:55:13;4.82;;;2.85;;
43184;SDS011;28803;52.308;19.096;2023-04-24T13:57:41;7.75;;;3.30;;
43184;SDS011;28803;52.308;19.096;2023-04-24T14:00:08;4.95;;;3.00;;
43184;SDS011;28803;52.308;19.096;2023-04-24T14:02:37;4.47;;;2.65;;
43184;SDS011;28803;52.308;19.096;2023-04-24T14:05:05;4.50;;;2.97;;
43184;SDS011;28803;52.308;19.096;2023-04-24T14:07:33;4.43;;;3.13;;
43184;SDS011;28803;52.308;19.096;2023-04-24T14:10:00;4.47;;;3.00;;
43184;SDS011;28803;52.308;19.096;2023-04-24T14:12:27;4.78;;;2.97;;
43184;SDS011;28803;52.308;19.096;2023-04-24T14:14:55;5.95;;;3.35;;
43184;SDS011;28803;52.308;19.096;2023-04-24T14:17:22;4.68;;;3.15;;
43184;SDS011;28803;52.308;19.096;2023-04-24T14:19:49;5.03;;;3.20;;
43184;SDS011;28803;52.308;19.096;2023-04-24T14:22:18;4.78;;;3.00;;
43184;SDS011;28803;52.308;19.096;2023-04-24T14:24:46;4.63;;;2.55;;
43184;SDS011;28803;52.308;19.096;2023-04-24T14:27:12;5.15;;;2.58;;
43184;SDS011;28803;52.308;19.096;2023-04-24T14:29:40;6.35;;;2.80;;
43184;SDS011;28803;52.308;19.096;2023-04-24T14:32:07;4.18;;;2.65;;
43184;SDS011;28803;52.308;19.096;2023-04-24T14:34:35;4.20;;;2.75;;
43184;SDS011;28803;52.308;19.096;2023-04-24T14:37:02;4.60;;;2.65;;
43184;SDS011;28803;52.308;19.096;2023-04-24T14:39:30;13.23;;;2.85;;
43184;SDS011;28803;52.308;19.096;2023-04-24T14:41:57;4.57;;;2.30;;
43184;SDS011;28803;52.308;19.096;2023-04-24T14:44:24;3.35;;;2.50;;
43184;SDS011;28803;52.308;19.096;2023-04-24T14:46:52;4.25;;;2.50;;
43184;SDS011;28803;52.308;19.096;2023-04-24T14:49:20;5.13;;;2.60;;
43184;SDS011;28803;52.308;19.096;2023-04-24T14:51:47;4.45;;;2.70;;